Tromso, Norway

4:20 AM CEST on August 30, 2014 (GMT +0200)
Langnes | Change Station
CLOSE
Current Station
Personal Weather Station
Location: Tromso, TROMS
Elevation: 154 ft
Nearby Weather Stations

Elev 154 ft 69.67 °N, 18.91 °E | Updated 5 minutes ago

Mostly Cloudy
Mostly Cloudy
48.6 °F
Feels Like 49 °F
N
0.8
Wind Variable Wind from West
Gusts 3.8 mph

Today
High -- | Low -- °F
--% Chance of Precip.
Yesterday
High -- | Low -- °F
Precip. -- in
4:52 AM 8:34 PM
Waxing Crescent, 18% visible
Pressure 30.09 in
Visibility 6.2 miles
Clouds Few 600 ft
Mostly Cloudy 1000 ft
Windchill 49 °F
Dew Point 48 °F
Humidity 99%
Rainfall 0.00 in
Snow Depth Not available.
UV 0.0 out of 12
Pollen Not available.
Air Quality Not available.
Flu Activity Not available.
METAR ENTC 300150Z 03003KT 9999 FEW006 BKN010 09/07 Q1019 RMK WIND 2600FT VRB02KT

More Conditions Fewer Conditions

Pressure 30.09 in
Visibility 6.2 miles
Clouds Few 600 ft
Mostly Cloudy 1000 ft
Windchill 49 °F
Dew Point 48 °F
Humidity 99%
Rainfall 0.00 in
Snow Depth Not available.
UV 0.0 out of 12
Pollen Not available.
Air Quality Not available.
Flu Activity Not available.
METAR ENTC 300150Z 03003KT 9999 FEW006 BKN010 09/07 Q1019 RMK WIND 2600FT VRB02KT

More Conditions Fewer Conditions

10-Day Weather Forecast

Almanac

Astronomy

Aug. 30, 2014 Rise Set
Actual Time 4:52 AM CEST 8:34 PM CEST
Civil Twilight 3:35 AM CEST 9:49 PM CEST
Nautical Twilight 1:17 AM CEST 12:12 AM CEST
Astronomical Twilight Sun does not rise Sun does not rise
Moon 12:10 PM CEST 8:01 PM CEST
Length of Visible Light 18h 13m
Length of Day
15h 42m
Tomorrow will be 8m 57s shorter.
Waxing Crescent, 18% of the Moon is Illuminated
Aug 29
Waxing Crescent
Sep 2
First Quarter
Sep 8
Full
Sep 15
Last Quarter
Sep 24
New

Yesterday's Extremes

Country Highs Country Lows

Community

WunderPhotos

Upload Photos

1,748,412 photos uploaded!

Nearby

Snow Depth

Not available.

Earthquake Activity

City Distance Mag. Time & Date
No recent earthquake activity has been reported nearby.
Minimum magnitude displayed is 2.5.

Coastal Water Temperatures

Place Temperature
No Stations Reporting

Nearby Weather Stations